createdAt,value
2023-04-30T00:01:26.570Z,100.00
2023-04-30T00:03:55.499Z,100.00
2023-04-30T00:06:25.549Z,100.00
2023-04-30T00:08:55.319Z,100.00
2023-04-30T00:11:23.776Z,100.00
2023-04-30T00:13:53.667Z,100.00
2023-04-30T00:16:22.134Z,100.00
2023-04-30T00:18:50.848Z,100.00
2023-04-30T00:21:19.411Z,100.00
2023-04-30T00:23:48.050Z,100.00
2023-04-30T00:26:16.824Z,100.00
2023-04-30T00:28:48.637Z,100.00
2023-04-30T00:31:18.497Z,100.00
2023-04-30T00:33:46.987Z,100.00
2023-04-30T00:36:15.563Z,100.00
2023-04-30T00:38:44.110Z,100.00
2023-04-30T00:41:12.579Z,100.00
2023-04-30T00:43:41.846Z,100.00
2023-04-30T00:46:10.306Z,100.00
2023-04-30T00:48:40.546Z,100.00
2023-04-30T00:51:09.281Z,100.00
2023-04-30T00:53:41.130Z,100.00
2023-04-30T00:56:10.847Z,100.00
2023-04-30T00:58:39.409Z,100.00
2023-04-30T01:01:08.391Z,100.00
2023-04-30T01:03:37.108Z,100.00
2023-04-30T01:06:07.282Z,100.00
2023-04-30T01:08:36.492Z,100.00
2023-04-30T01:11:18.645Z,100.00
2023-04-30T01:13:51.947Z,100.00
2023-04-30T01:16:25.057Z,100.00
2023-04-30T01:18:59.041Z,100.00
2023-04-30T01:21:31.139Z,100.00
2023-04-30T01:24:26.235Z,100.00
2023-04-30T01:27:05.960Z,100.00
2023-04-30T01:29:37.707Z,100.00
2023-04-30T01:32:06.024Z,100.00
2023-04-30T01:34:34.944Z,100.00
2023-04-30T01:37:16.838Z,100.00
2023-04-30T01:40:04.500Z,100.00
2023-04-30T01:42:41.991Z,100.00
2023-04-30T01:45:23.799Z,100.00
2023-04-30T01:47:58.045Z,100.00
2023-04-30T01:50:33.033Z,100.00
2023-04-30T01:53:04.893Z,100.00
2023-04-30T01:55:37.880Z,100.00
2023-04-30T01:58:08.410Z,100.00
2023-04-30T02:00:38.167Z,100.00
2023-04-30T02:03:07.026Z,100.00
2023-04-30T02:05:36.301Z,100.00
2023-04-30T02:08:05.537Z,100.00
2023-04-30T02:10:35.721Z,100.00
2023-04-30T02:13:04.596Z,100.00
2023-04-30T02:15:33.226Z,100.00
2023-04-30T02:18:03.262Z,100.00
2023-04-30T02:20:32.340Z,100.00
2023-04-30T02:23:00.845Z,100.00
2023-04-30T02:25:29.933Z,100.00
2023-04-30T02:27:58.881Z,100.00
2023-04-30T02:30:27.307Z,100.00
2023-04-30T02:32:56.024Z,100.00
2023-04-30T02:35:26.666Z,100.00
2023-04-30T02:37:55.200Z,100.00
2023-04-30T02:40:23.624Z,100.00
2023-04-30T02:42:54.205Z,100.00
2023-04-30T02:45:22.804Z,100.00
2023-04-30T02:47:51.581Z,100.00
2023-04-30T02:50:20.020Z,100.00
2023-04-30T02:52:50.200Z,100.00
2023-04-30T02:55:18.771Z,100.00
2023-04-30T02:57:47.687Z,100.00
2023-04-30T03:00:16.613Z,100.00
2023-04-30T03:02:45.332Z,100.00
2023-04-30T03:05:15.984Z,100.00
2023-04-30T03:07:44.770Z,100.00
2023-04-30T03:10:14.898Z,100.00
2023-04-30T03:12:43.429Z,100.00
2023-04-30T03:15:12.513Z,100.00
2023-04-30T03:17:42.117Z,100.00
2023-04-30T03:20:12.915Z,100.00
2023-04-30T03:22:42.026Z,100.00
2023-04-30T03:25:11.821Z,100.00
2023-04-30T03:27:41.808Z,100.00
2023-04-30T03:30:10.952Z,100.00
2023-04-30T03:32:42.128Z,100.00
2023-04-30T03:35:11.529Z,100.00
2023-04-30T03:37:40.051Z,100.00
2023-04-30T03:40:09.890Z,100.00
2023-04-30T03:42:38.433Z,100.00
2023-04-30T03:45:09.596Z,100.00
2023-04-30T03:47:38.415Z,100.00
2023-04-30T03:50:08.380Z,100.00
2023-04-30T03:52:37.835Z,100.00
2023-04-30T03:55:07.749Z,100.00
2023-04-30T03:57:36.620Z,100.00
2023-04-30T04:00:08.913Z,100.00
2023-04-30T04:02:42.293Z,100.00
2023-04-30T04:05:12.871Z,100.00
2023-04-30T04:07:41.493Z,100.00
2023-04-30T04:10:10.511Z,100.00
2023-04-30T04:12:39.459Z,100.00
2023-04-30T04:15:11.178Z,100.00
2023-04-30T04:17:40.037Z,100.00
2023-04-30T04:20:11.901Z,100.00
2023-04-30T04:22:42.734Z,100.00
2023-04-30T04:25:12.147Z,100.00
2023-04-30T04:27:42.405Z,100.00
2023-04-30T04:30:14.140Z,100.00
2023-04-30T04:32:46.834Z,100.00
2023-04-30T04:35:16.079Z,100.00
2023-04-30T04:37:45.336Z,100.00
2023-04-30T04:40:14.293Z,100.00
2023-04-30T04:42:43.350Z,100.00
2023-04-30T04:45:16.403Z,100.00
2023-04-30T04:47:45.086Z,100.00
2023-04-30T04:50:15.040Z,100.00
2023-04-30T04:52:43.744Z,100.00
2023-04-30T04:55:13.502Z,100.00
2023-04-30T04:57:42.762Z,100.00
2023-04-30T05:00:12.976Z,100.00
2023-04-30T05:02:43.036Z,100.00
2023-04-30T05:05:12.337Z,100.00
2023-04-30T05:07:41.509Z,100.00
2023-04-30T05:10:11.629Z,100.00
2023-04-30T05:12:40.298Z,100.00
2023-04-30T05:15:09.798Z,100.00
2023-04-30T05:17:38.416Z,100.00
2023-04-30T05:20:09.993Z,100.00
2023-04-30T05:22:38.490Z,100.00
2023-04-30T05:25:07.939Z,100.00
2023-04-30T05:27:37.499Z,100.00
2023-04-30T05:30:06.843Z,100.00
2023-04-30T05:32:35.645Z,100.00
2023-04-30T05:35:04.752Z,100.00
2023-04-30T05:37:35.303Z,100.00
2023-04-30T05:40:04.180Z,100.00
2023-04-30T05:42:32.977Z,100.00
2023-04-30T05:45:02.226Z,100.00
2023-04-30T05:47:31.335Z,100.00
2023-04-30T05:49:59.966Z,100.00
2023-04-30T05:52:28.519Z,100.00
2023-04-30T05:54:58.503Z,100.00
2023-04-30T05:57:27.239Z,100.00
2023-04-30T05:59:56.118Z,100.00
2023-04-30T06:02:25.046Z,100.00
2023-04-30T06:04:53.950Z,100.00
2023-04-30T06:07:23.252Z,100.00
2023-04-30T06:09:52.115Z,100.00
2023-04-30T06:12:22.137Z,100.00
2023-04-30T06:14:51.432Z,100.00
2023-04-30T06:17:20.069Z,100.00
2023-04-30T06:19:48.427Z,100.00
2023-04-30T06:22:16.944Z,100.00
2023-04-30T06:24:45.880Z,100.00
2023-04-30T06:27:14.592Z,100.00
2023-04-30T06:29:46.449Z,100.00
2023-04-30T06:32:15.044Z,100.00
2023-04-30T06:34:43.912Z,100.00
2023-04-30T06:37:12.592Z,100.00
2023-04-30T06:39:40.908Z,100.00
2023-04-30T06:42:09.421Z,100.00
2023-04-30T06:44:37.975Z,100.00
2023-04-30T06:47:07.930Z,100.00
2023-04-30T06:49:36.640Z,100.00
2023-04-30T06:52:05.457Z,100.00
2023-04-30T06:54:34.101Z,100.00
2023-04-30T06:57:03.813Z,100.00
2023-04-30T06:59:32.876Z,100.00
2023-04-30T07:02:01.537Z,100.00
2023-04-30T07:04:31.561Z,100.00
2023-04-30T07:07:02.308Z,100.00
2023-04-30T07:09:31.044Z,100.00
2023-04-30T07:11:59.857Z,100.00
2023-04-30T07:14:28.590Z,100.00
2023-04-30T07:16:57.150Z,100.00
2023-04-30T07:19:27.152Z,100.00
2023-04-30T07:21:57.264Z,100.00
2023-04-30T07:24:25.930Z,100.00
2023-04-30T07:26:54.343Z,100.00
2023-04-30T07:29:23.156Z,100.00
2023-04-30T07:31:51.875Z,100.00
2023-04-30T07:34:20.357Z,100.00
2023-04-30T07:36:49.672Z,100.00
2023-04-30T07:39:19.934Z,100.00
2023-04-30T07:41:48.844Z,100.00
2023-04-30T07:44:18.163Z,100.00
2023-04-30T07:46:46.812Z,100.00
2023-04-30T07:49:15.928Z,100.00
2023-04-30T07:51:44.561Z,100.00
2023-04-30T07:54:12.998Z,100.00
2023-04-30T07:56:42.943Z,100.00
2023-04-30T07:59:11.498Z,100.00
2023-04-30T08:01:40.167Z,100.00
2023-04-30T08:04:09.776Z,100.00
2023-04-30T08:06:38.346Z,100.00
2023-04-30T08:09:06.990Z,100.00
2023-04-30T08:11:35.595Z,100.00
2023-04-30T08:14:07.110Z,100.00
2023-04-30T08:16:37.252Z,100.00
2023-04-30T08:19:05.984Z,100.00
2023-04-30T08:21:34.851Z,100.00
2023-04-30T08:24:03.701Z,100.00
2023-04-30T08:26:32.191Z,98.96
2023-04-30T08:29:00.897Z,96.81
2023-04-30T08:31:35.425Z,95.68
2023-04-30T08:34:04.824Z,94.84
2023-04-30T08:36:33.278Z,94.41
2023-04-30T08:39:02.935Z,95.08
2023-04-30T08:41:35.182Z,95.29
2023-04-30T08:44:08.180Z,94.94
2023-04-30T08:46:40.170Z,94.44
2023-04-30T08:49:08.858Z,93.83
2023-04-30T08:51:38.206Z,91.95
2023-04-30T08:54:06.825Z,88.79
2023-04-30T08:56:35.479Z,83.79
2023-04-30T08:59:03.944Z,84.14
2023-04-30T09:01:32.627Z,81.22
2023-04-30T09:04:04.957Z,79.44
2023-04-30T09:06:34.009Z,78.53
2023-04-30T09:09:11.754Z,78.15
2023-04-30T09:11:40.871Z,79.78
2023-04-30T09:14:09.905Z,81.53
2023-04-30T09:16:49.082Z,78.36
2023-04-30T09:19:29.642Z,77.90
2023-04-30T09:21:58.541Z,76.90
2023-04-30T09:24:27.297Z,75.48
2023-04-30T09:26:55.831Z,75.15
2023-04-30T09:29:37.499Z,74.05
2023-04-30T09:32:10.469Z,72.11
2023-04-30T09:34:40.981Z,73.61
2023-04-30T09:37:09.571Z,75.00
2023-04-30T09:39:49.829Z,71.49
2023-04-30T09:42:19.268Z,72.65
2023-04-30T09:44:49.036Z,71.69
2023-04-30T09:47:20.049Z,71.63
2023-04-30T09:49:53.559Z,72.32
2023-04-30T09:52:22.793Z,70.35
2023-04-30T09:54:51.667Z,71.18
2023-04-30T09:57:24.789Z,69.49
2023-04-30T09:59:54.918Z,68.11
2023-04-30T10:02:24.961Z,67.46
2023-04-30T10:04:59.499Z,64.47
2023-04-30T10:07:35.634Z,62.88
2023-04-30T10:10:08.929Z,59.99
2023-04-30T10:12:45.286Z,57.37
2023-04-30T10:15:19.063Z,59.38
2023-04-30T10:17:52.107Z,57.97
2023-04-30T10:20:24.761Z,59.57
2023-04-30T10:22:57.552Z,58.51
2023-04-30T10:25:27.180Z,57.90
2023-04-30T10:27:56.094Z,54.62
2023-04-30T10:30:25.093Z,55.45
2023-04-30T10:33:08.211Z,50.54
2023-04-30T10:35:48.353Z,49.58
2023-04-30T10:38:23.320Z,52.57
2023-04-30T10:40:52.164Z,53.53
2023-04-30T10:43:22.325Z,50.82
2023-04-30T10:45:51.631Z,52.10
2023-04-30T10:48:26.052Z,47.90
2023-04-30T10:50:58.016Z,47.36
2023-04-30T10:53:29.124Z,50.08
2023-04-30T10:56:00.771Z,48.73
2023-04-30T10:58:34.316Z,47.60
2023-04-30T11:01:08.752Z,46.69
2023-04-30T11:03:38.568Z,47.47
2023-04-30T11:06:13.597Z,40.87
2023-04-30T11:08:46.666Z,43.36
2023-04-30T11:11:21.463Z,43.51
2023-04-30T11:14:02.886Z,39.27
2023-04-30T11:16:32.070Z,45.00
2023-04-30T11:19:09.482Z,39.15
2023-04-30T11:21:43.213Z,41.84
2023-04-30T11:24:11.939Z,42.18
2023-04-30T11:27:07.189Z,35.66
2023-04-30T11:29:36.630Z,42.73
2023-04-30T11:32:09.256Z,41.10
2023-04-30T11:34:39.367Z,40.05
2023-04-30T11:37:13.477Z,40.29
2023-04-30T11:39:43.913Z,40.99
2023-04-30T11:42:18.133Z,40.04
2023-04-30T11:44:47.231Z,40.60
2023-04-30T11:47:17.447Z,40.28
2023-04-30T11:49:45.967Z,41.42
2023-04-30T11:52:16.282Z,39.32
2023-04-30T11:54:46.117Z,38.84
2023-04-30T11:57:15.190Z,39.51
2023-04-30T11:59:44.029Z,39.42
2023-04-30T12:02:16.780Z,37.55
2023-04-30T12:04:47.302Z,38.81
2023-04-30T12:07:17.497Z,38.02
2023-04-30T12:09:56.683Z,33.93
2023-04-30T12:12:29.874Z,37.47
2023-04-30T12:14:59.507Z,39.23
2023-04-30T12:17:35.193Z,36.12
2023-04-30T12:20:05.312Z,38.19
2023-04-30T12:22:35.598Z,39.41
2023-04-30T12:25:08.312Z,38.65
2023-04-30T12:27:37.313Z,39.60
2023-04-30T12:30:09.841Z,38.20
2023-04-30T12:32:44.794Z,37.60
2023-04-30T12:35:16.846Z,38.57
2023-04-30T12:37:47.223Z,33.00
2023-04-30T12:40:16.314Z,39.05
2023-04-30T12:42:47.111Z,37.83
2023-04-30T12:45:51.379Z,34.35
2023-04-30T12:48:22.282Z,38.67
2023-04-30T12:50:55.367Z,36.79
2023-04-30T12:53:26.005Z,37.74
2023-04-30T12:56:15.679Z,34.14
2023-04-30T12:58:47.694Z,37.73
2023-04-30T13:01:19.702Z,36.61
2023-04-30T13:03:48.660Z,37.51
2023-04-30T13:06:18.161Z,37.84
2023-04-30T13:08:58.067Z,37.31
2023-04-30T13:11:27.980Z,37.63
2023-04-30T13:13:57.012Z,37.27
2023-04-30T13:16:26.219Z,37.40
2023-04-30T13:18:55.437Z,37.60
2023-04-30T13:21:25.035Z,37.61
2023-04-30T13:23:58.366Z,37.57
2023-04-30T13:26:28.644Z,37.72
2023-04-30T13:28:57.385Z,37.68
2023-04-30T13:31:26.065Z,37.83
2023-04-30T13:33:55.070Z,37.33
2023-04-30T13:36:24.242Z,37.37
2023-04-30T13:38:54.587Z,37.63
2023-04-30T13:41:23.763Z,37.43
2023-04-30T13:43:52.963Z,37.56
2023-04-30T13:46:22.162Z,37.52
2023-04-30T13:48:53.353Z,37.82
2023-04-30T13:51:21.994Z,37.86
2023-04-30T13:53:50.453Z,37.39
2023-04-30T13:56:21.276Z,37.18
2023-04-30T13:58:49.839Z,37.70
2023-04-30T14:01:18.915Z,37.70
2023-04-30T14:03:49.133Z,37.69
2023-04-30T14:06:18.116Z,37.72
2023-04-30T14:08:46.785Z,37.62
2023-04-30T14:11:15.505Z,37.21
2023-04-30T14:13:45.790Z,37.97
2023-04-30T14:16:14.214Z,38.04
2023-04-30T14:18:44.056Z,38.33
2023-04-30T14:21:12.931Z,36.73
2023-04-30T14:23:41.893Z,37.82
2023-04-30T14:26:10.874Z,38.19
2023-04-30T14:28:39.326Z,37.91
2023-04-30T14:31:09.531Z,37.59
2023-04-30T14:33:38.158Z,37.79
2023-04-30T14:36:08.297Z,38.07
2023-04-30T14:38:37.116Z,38.22
2023-04-30T14:41:07.383Z,38.23
2023-04-30T14:43:36.056Z,38.51
2023-04-30T14:46:04.899Z,38.41
2023-04-30T14:48:35.031Z,38.38
2023-04-30T14:51:03.421Z,38.12
2023-04-30T14:53:32.113Z,38.59
2023-04-30T14:56:00.676Z,37.86
2023-04-30T14:58:29.265Z,38.74
2023-04-30T15:00:58.227Z,38.41
2023-04-30T15:03:26.911Z,38.37
2023-04-30T15:05:57.259Z,38.19
2023-04-30T15:08:25.820Z,38.52
2023-04-30T15:10:55.196Z,39.15
2023-04-30T15:13:23.667Z,38.54
2023-04-30T15:15:52.910Z,38.54
2023-04-30T15:18:21.953Z,38.65
2023-04-30T15:20:50.441Z,38.76
2023-04-30T15:23:21.028Z,39.05
2023-04-30T15:25:50.384Z,38.68
2023-04-30T15:28:18.887Z,38.72
2023-04-30T15:30:47.537Z,38.16
2023-04-30T15:33:16.191Z,38.52
2023-04-30T15:35:44.718Z,38.88
2023-04-30T15:38:13.639Z,38.75
2023-04-30T15:40:44.063Z,38.64
2023-04-30T15:43:12.951Z,38.94
2023-04-30T15:45:47.814Z,39.15
2023-04-30T15:48:16.905Z,39.20
2023-04-30T15:50:45.406Z,38.56
2023-04-30T15:53:13.916Z,39.06
2023-04-30T15:55:44.240Z,38.37
2023-04-30T15:58:13.237Z,38.66
2023-04-30T16:00:41.809Z,38.78
2023-04-30T16:03:10.569Z,38.71
2023-04-30T16:05:40.805Z,38.71
2023-04-30T16:08:10.572Z,38.92
2023-04-30T16:10:39.390Z,39.05
2023-04-30T16:13:09.815Z,39.34
2023-04-30T16:15:38.362Z,39.91
2023-04-30T16:18:08.041Z,39.99
2023-04-30T16:20:37.680Z,40.28
2023-04-30T16:23:06.933Z,40.30
2023-04-30T16:25:35.690Z,40.25
2023-04-30T16:28:04.311Z,40.64
2023-04-30T16:30:34.596Z,40.39
2023-04-30T16:33:03.540Z,40.32
2023-04-30T16:35:32.254Z,40.42
2023-04-30T16:38:02.752Z,40.79
2023-04-30T16:40:32.011Z,40.62
2023-04-30T16:43:00.920Z,41.05
2023-04-30T16:45:30.375Z,41.18
2023-04-30T16:48:00.653Z,40.93
2023-04-30T16:50:29.165Z,41.23
2023-04-30T16:53:00.568Z,41.51
2023-04-30T16:55:29.229Z,41.50
2023-04-30T16:57:57.953Z,41.99
2023-04-30T17:00:26.742Z,42.19
2023-04-30T17:02:55.987Z,42.00
2023-04-30T17:05:26.423Z,42.04
2023-04-30T17:07:55.380Z,42.38
2023-04-30T17:10:24.270Z,42.90
2023-04-30T17:12:52.917Z,43.00
2023-04-30T17:15:21.513Z,43.23
2023-04-30T17:17:50.137Z,43.29
2023-04-30T17:20:18.888Z,43.40
2023-04-30T17:22:49.724Z,43.54
2023-04-30T17:25:18.284Z,43.87
2023-04-30T17:27:47.548Z,43.70
2023-04-30T17:30:16.901Z,44.17
2023-04-30T17:32:45.351Z,44.22
2023-04-30T17:35:13.948Z,44.58
2023-04-30T17:37:42.646Z,45.23
2023-04-30T17:40:13.167Z,44.88
2023-04-30T17:42:41.851Z,45.50
2023-04-30T17:45:11.078Z,46.06
2023-04-30T17:47:40.664Z,46.55
2023-04-30T17:50:10.546Z,46.66
2023-04-30T17:52:39.513Z,47.10
2023-04-30T17:55:09.179Z,47.38
2023-04-30T17:57:39.266Z,47.88
2023-04-30T18:00:09.391Z,48.58
2023-04-30T18:02:44.892Z,48.22
2023-04-30T18:05:13.765Z,48.68
2023-04-30T18:07:42.525Z,48.78
2023-04-30T18:10:11.289Z,49.30
2023-04-30T18:12:41.704Z,49.14
2023-04-30T18:15:13.125Z,49.22
2023-04-30T18:17:42.454Z,49.64
2023-04-30T18:20:12.925Z,50.22
2023-04-30T18:22:43.726Z,50.09
2023-04-30T18:25:13.235Z,50.96
2023-04-30T18:27:43.381Z,51.13
2023-04-30T18:30:12.904Z,51.79
2023-04-30T18:32:42.043Z,52.57
2023-04-30T18:35:11.642Z,52.97
2023-04-30T18:37:40.283Z,53.74
2023-04-30T18:40:09.882Z,53.81
2023-04-30T18:42:38.894Z,53.97
2023-04-30T18:45:11.626Z,52.82
2023-04-30T18:47:39.990Z,53.17
2023-04-30T18:50:13.699Z,53.55
2023-04-30T18:52:42.841Z,53.58
2023-04-30T18:55:13.938Z,53.78
2023-04-30T18:57:43.799Z,53.61
2023-04-30T19:00:15.012Z,54.11
2023-04-30T19:02:44.304Z,54.76
2023-04-30T19:05:14.384Z,54.35
2023-04-30T19:07:44.919Z,54.33
2023-04-30T19:10:13.830Z,54.92
2023-04-30T19:12:44.071Z,55.02
2023-04-30T19:15:15.072Z,55.27
2023-04-30T19:17:43.764Z,55.05
2023-04-30T19:20:13.492Z,54.98
2023-04-30T19:22:42.138Z,54.93
2023-04-30T19:25:11.850Z,54.88
2023-04-30T19:27:40.665Z,55.51
2023-04-30T19:30:10.059Z,55.35
2023-04-30T19:32:40.388Z,54.89
2023-04-30T19:35:10.332Z,55.69
2023-04-30T19:37:38.867Z,55.55
2023-04-30T19:40:10.652Z,56.63
2023-04-30T19:42:39.110Z,57.16
2023-04-30T19:45:09.780Z,57.11
2023-04-30T19:47:39.900Z,57.45
2023-04-30T19:50:10.262Z,57.81
2023-04-30T19:52:38.665Z,57.36
2023-04-30T19:55:07.406Z,57.94
2023-04-30T19:57:36.626Z,57.94
2023-04-30T20:00:06.606Z,57.33
2023-04-30T20:02:39.270Z,58.08
2023-04-30T20:05:10.382Z,58.14
2023-04-30T20:07:38.744Z,57.95
2023-04-30T20:10:09.809Z,58.37
2023-04-30T20:12:38.577Z,58.17
2023-04-30T20:15:08.311Z,59.01
2023-04-30T20:17:36.882Z,58.83
2023-04-30T20:20:08.025Z,58.98
2023-04-30T20:22:36.648Z,59.17
2023-04-30T20:25:05.553Z,59.92
2023-04-30T20:27:34.569Z,59.97
2023-04-30T20:30:04.958Z,59.29
2023-04-30T20:32:34.813Z,59.29
2023-04-30T20:35:04.798Z,60.13
2023-04-30T20:37:35.171Z,59.60
2023-04-30T20:40:07.972Z,60.31
2023-04-30T20:42:36.380Z,60.06
2023-04-30T20:45:06.790Z,60.45
2023-04-30T20:47:35.876Z,61.16
2023-04-30T20:50:04.658Z,61.52
2023-04-30T20:52:35.023Z,62.14
2023-04-30T20:55:03.676Z,61.87
2023-04-30T20:57:32.502Z,61.95
2023-04-30T21:00:01.649Z,61.95
2023-04-30T21:02:30.795Z,62.15
2023-04-30T21:05:04.466Z,62.33
2023-04-30T21:07:35.602Z,62.68
2023-04-30T21:10:05.345Z,62.05
2023-04-30T21:12:34.485Z,63.16
2023-04-30T21:15:04.818Z,64.02
2023-04-30T21:17:33.313Z,64.23
2023-04-30T21:20:01.881Z,64.88
2023-04-30T21:22:32.034Z,65.39
2023-04-30T21:25:02.227Z,66.05
2023-04-30T21:27:30.798Z,65.83
2023-04-30T21:29:59.305Z,66.56
2023-04-30T21:32:27.899Z,66.39
2023-04-30T21:34:56.420Z,67.10
2023-04-30T21:37:25.241Z,66.97
2023-04-30T21:39:55.989Z,66.67
2023-04-30T21:42:27.756Z,68.19
2023-04-30T21:44:56.675Z,68.74
2023-04-30T21:47:25.438Z,70.01
2023-04-30T21:49:54.270Z,71.11
2023-04-30T21:52:22.980Z,72.87
2023-04-30T21:54:51.879Z,73.57
2023-04-30T21:57:20.685Z,74.08
2023-04-30T21:59:50.540Z,74.79
2023-04-30T22:02:24.337Z,76.55
2023-04-30T22:04:53.571Z,77.89
2023-04-30T22:07:22.461Z,78.05
2023-04-30T22:09:51.835Z,79.05
2023-04-30T22:12:22.953Z,79.20
2023-04-30T22:14:55.467Z,80.42
2023-04-30T22:17:24.952Z,80.79
2023-04-30T22:19:54.639Z,81.38
2023-04-30T22:22:23.425Z,81.91
2023-04-30T22:24:51.828Z,81.59
2023-04-30T22:27:20.363Z,82.53
2023-04-30T22:29:50.723Z,82.74
2023-04-30T22:32:20.836Z,82.85
2023-04-30T22:34:50.870Z,83.93
2023-04-30T22:37:19.419Z,83.97
2023-04-30T22:39:48.627Z,84.10
2023-04-30T22:42:17.188Z,84.80
2023-04-30T22:44:46.883Z,84.93
2023-04-30T22:47:15.525Z,85.80
2023-04-30T22:49:46.081Z,86.18
2023-04-30T22:52:15.265Z,86.41
2023-04-30T22:54:43.809Z,86.07
2023-04-30T22:57:12.297Z,86.48
2023-04-30T22:59:41.359Z,86.11
2023-04-30T23:02:10.024Z,86.50
2023-04-30T23:04:38.952Z,87.04
2023-04-30T23:07:09.202Z,86.77
2023-04-30T23:09:37.787Z,87.17
2023-04-30T23:12:07.406Z,87.60
2023-04-30T23:14:36.317Z,87.51
2023-04-30T23:17:05.134Z,87.99
2023-04-30T23:19:34.400Z,88.03
2023-04-30T23:22:04.762Z,88.58
2023-04-30T23:24:36.077Z,88.94
2023-04-30T23:27:05.058Z,88.89
2023-04-30T23:29:36.330Z,88.60
2023-04-30T23:32:05.917Z,89.66
2023-04-30T23:34:41.327Z,90.31
2023-04-30T23:37:10.803Z,90.01
2023-04-30T23:39:41.622Z,90.03
2023-04-30T23:42:10.189Z,89.77
2023-04-30T23:44:38.629Z,90.03
2023-04-30T23:47:08.435Z,91.42
2023-04-30T23:49:37.034Z,91.37
2023-04-30T23:52:06.477Z,91.46
2023-04-30T23:54:35.138Z,92.34
2023-04-30T23:57:06.287Z,92.34
2023-04-30T23:59:34.857Z,92.11
